createdAt,value
2022-12-19T00:02:44.919Z,13.3
2022-12-19T00:05:44.854Z,13.2
2022-12-19T00:08:44.862Z,13.6
2022-12-19T00:11:44.988Z,13.1
2022-12-19T00:14:44.866Z,12.9
2022-12-19T00:17:44.882Z,13
2022-12-19T00:20:44.880Z,12.5
2022-12-19T00:23:44.883Z,12.2
2022-12-19T00:26:44.886Z,12.3
2022-12-19T00:29:45.010Z,12.7
2022-12-19T00:32:44.919Z,12.2
2022-12-19T00:35:44.893Z,12
2022-12-19T00:38:44.904Z,12.2
2022-12-19T00:41:44.903Z,12.3
2022-12-19T00:44:44.914Z,11.8
2022-12-19T00:47:45.039Z,11.6
2022-12-19T00:50:44.988Z,11.9
2022-12-19T00:53:44.921Z,11.9
2022-12-19T00:56:44.919Z,11.7
2022-12-19T00:59:44.927Z,12
2022-12-19T01:02:45.187Z,12
2022-12-19T01:05:45.061Z,11.5
2022-12-19T01:08:44.937Z,11.7
2022-12-19T01:11:44.946Z,11.8
2022-12-19T01:14:44.951Z,11.8
2022-12-19T01:17:45.231Z,11.6
2022-12-19T01:20:44.967Z,11
2022-12-19T01:23:45.089Z,11.1
2022-12-19T01:26:44.969Z,10.7
2022-12-19T01:29:52.076Z,11.4
2022-12-19T01:32:44.993Z,10.7
2022-12-19T01:35:44.986Z,11.1
2022-12-19T01:38:44.988Z,11.1
2022-12-19T01:41:45.115Z,10.4
2022-12-19T01:44:44.995Z,10.6
2022-12-19T01:47:45.017Z,10.5
2022-12-19T01:50:47.826Z,10.5
2022-12-19T01:53:49.124Z,10.6
2022-12-19T01:56:44.983Z,10.1
2022-12-19T01:59:45.105Z,10.6
2022-12-19T02:02:45.153Z,10.5
2022-12-19T02:05:44.994Z,10.3
2022-12-19T02:08:44.998Z,10.3
2022-12-19T02:11:45.006Z,10.5
2022-12-19T02:14:45.010Z,10.2
2022-12-19T02:17:46.477Z,10
2022-12-19T02:20:45.023Z,10.3
2022-12-19T02:23:45.032Z,10.1
2022-12-19T02:26:45.026Z,10
2022-12-19T02:29:45.034Z,9.9
2022-12-19T02:32:45.051Z,9.8
2022-12-19T02:35:45.178Z,9.8
2022-12-19T02:38:45.046Z,10.5
2022-12-19T02:41:45.055Z,9.9
2022-12-19T02:44:45.061Z,10
2022-12-19T02:47:45.081Z,10.2
2022-12-19T02:50:45.089Z,9.6
2022-12-19T02:53:45.197Z,9.9
2022-12-19T02:56:45.083Z,10.3
2022-12-19T02:59:45.096Z,10
2022-12-19T03:02:45.404Z,10
2022-12-19T03:05:45.095Z,10.2
2022-12-19T03:08:45.103Z,10
2022-12-19T03:11:45.219Z,10.1
2022-12-19T03:14:45.111Z,10
2022-12-19T03:17:45.133Z,10.2
2022-12-19T03:20:45.120Z,10.3
2022-12-19T03:23:45.133Z,10.1
2022-12-19T03:26:45.126Z,10.3
2022-12-19T03:29:45.280Z,10.1
2022-12-19T03:32:45.155Z,10.2
2022-12-19T03:35:45.138Z,10.2
2022-12-19T03:38:45.147Z,10.4
2022-12-19T03:41:45.154Z,9.9
2022-12-19T03:44:45.158Z,9.6
2022-12-19T03:47:45.302Z,10.7
2022-12-19T03:50:45.174Z,10.2
2022-12-19T03:53:45.188Z,9.7
2022-12-19T03:56:45.201Z,10.3
2022-12-19T03:59:45.206Z,9.9
2022-12-19T04:02:45.231Z,10
2022-12-19T04:05:45.343Z,9.6
2022-12-19T04:08:45.225Z,9.8
2022-12-19T04:11:45.229Z,9.7
2022-12-19T04:14:45.245Z,10.2
2022-12-19T04:17:45.268Z,9.7
2022-12-19T04:20:45.252Z,10
2022-12-19T04:23:45.381Z,10.1
2022-12-19T04:26:45.262Z,10
2022-12-19T04:29:45.274Z,9.3
2022-12-19T04:32:45.282Z,9.6
2022-12-19T04:35:45.284Z,9.5
2022-12-19T04:38:45.275Z,9.7
2022-12-19T04:41:45.407Z,9.6
2022-12-19T04:44:45.292Z,13.9
2022-12-19T04:47:45.312Z,11.4
2022-12-19T04:50:45.300Z,10
2022-12-19T04:53:45.337Z,9.8
2022-12-19T04:56:45.306Z,10.4
2022-12-19T04:59:45.435Z,10.2
2022-12-19T05:02:45.417Z,9.7
2022-12-19T05:05:45.319Z,10.2
2022-12-19T05:08:45.325Z,9.9
2022-12-19T05:11:45.340Z,9.7
2022-12-19T05:14:45.337Z,9.3
2022-12-19T05:17:45.468Z,9.7
2022-12-19T05:20:45.346Z,9.5
2022-12-19T05:23:45.360Z,9.9
2022-12-19T05:26:45.356Z,9.3
2022-12-19T05:29:45.360Z,9.6
2022-12-19T05:32:45.381Z,9.1
2022-12-19T05:35:45.497Z,9
2022-12-19T05:38:45.372Z,9.6
2022-12-19T05:41:48.919Z,9.4
2022-12-19T05:44:45.376Z,9.2
2022-12-19T05:47:45.394Z,8.8
2022-12-19T05:50:45.386Z,9.7
2022-12-19T05:53:45.506Z,8.8
2022-12-19T05:56:45.400Z,9.4
2022-12-19T05:59:45.402Z,10.1
2022-12-19T06:02:45.551Z,9.3
2022-12-19T06:05:45.410Z,9.5
2022-12-19T06:08:45.458Z,9.4
2022-12-19T06:11:45.542Z,9.6
2022-12-19T06:14:45.423Z,9.7
2022-12-19T06:17:45.452Z,10
2022-12-19T06:20:45.436Z,10
2022-12-19T06:23:45.450Z,10.7
2022-12-19T06:26:45.446Z,11.5
2022-12-19T06:29:45.595Z,11.6
2022-12-19T06:32:45.461Z,10.4
2022-12-19T06:35:45.456Z,10.2
2022-12-19T06:38:45.458Z,9.5
2022-12-19T06:41:45.469Z,10.2
2022-12-19T06:44:45.469Z,9.5
2022-12-19T06:47:45.627Z,9.9
2022-12-19T06:50:45.484Z,9.3
2022-12-19T06:53:45.487Z,10
2022-12-19T06:56:45.478Z,9.7
2022-12-19T06:59:45.494Z,9.8
2022-12-19T07:02:45.785Z,9.4
2022-12-19T07:05:45.611Z,9.8
2022-12-19T07:08:45.500Z,9.3
2022-12-19T07:11:45.509Z,9.9
2022-12-19T07:14:49.044Z,8.9
2022-12-19T07:17:45.527Z,9.7
2022-12-19T07:20:45.607Z,10
2022-12-19T07:23:45.639Z,10
2022-12-19T07:26:45.532Z,10.2
2022-12-19T07:29:45.535Z,10.4
2022-12-19T07:32:45.553Z,11.2
2022-12-19T07:35:45.542Z,11.8
2022-12-19T07:38:45.545Z,11.2
2022-12-19T07:41:45.666Z,11.9
2022-12-19T07:44:45.560Z,11.2
2022-12-19T07:47:45.568Z,10.2
2022-12-19T07:50:45.577Z,11.4
2022-12-19T07:53:45.563Z,10.9
2022-12-19T07:56:45.578Z,10.6
2022-12-19T07:59:45.706Z,11.2
2022-12-19T08:02:45.670Z,11.7
2022-12-19T08:05:45.608Z,11.5
2022-12-19T08:08:45.578Z,11.9
2022-12-19T08:11:45.589Z,11.8
2022-12-19T08:14:46.614Z,11.5
2022-12-19T08:17:45.754Z,11.8
2022-12-19T08:20:45.599Z,12.3
2022-12-19T08:23:45.604Z,12.5
2022-12-19T08:26:47.649Z,12.8
2022-12-19T08:29:45.625Z,13.7
2022-12-19T08:32:45.631Z,13.8
2022-12-19T08:35:45.746Z,13.7
2022-12-19T08:38:45.631Z,14.2
2022-12-19T08:41:45.645Z,14.2
2022-12-19T08:44:45.637Z,14.1
2022-12-19T08:47:45.650Z,14.6
2022-12-19T08:50:45.638Z,16.6
2022-12-19T08:53:45.771Z,16.2
2022-12-19T08:56:46.217Z,16.1
2022-12-19T08:59:45.654Z,16.2
2022-12-19T09:02:45.890Z,16.9
2022-12-19T09:06:02.787Z,16.3
2022-12-19T09:08:45.671Z,16.8
2022-12-19T09:11:46.762Z,17.4
2022-12-19T09:14:45.674Z,17.8
2022-12-19T09:17:45.696Z,18.2
2022-12-19T09:20:45.689Z,17.7
2022-12-19T09:23:45.685Z,18
2022-12-19T09:26:45.699Z,18.6
2022-12-19T09:29:45.818Z,18.1
2022-12-19T09:32:45.715Z,18.8
2022-12-19T09:35:45.706Z,19
2022-12-19T09:38:45.709Z,20.6
2022-12-19T09:41:45.717Z,20.8
2022-12-19T09:44:45.728Z,20.4
2022-12-19T09:47:45.848Z,20.5
2022-12-19T09:50:45.730Z,19.9
2022-12-19T09:53:45.735Z,20.8
2022-12-19T09:56:46.865Z,20.7
2022-12-19T09:59:49.541Z,21.1
2022-12-19T10:02:45.997Z,20.6
2022-12-19T10:06:49.299Z,20.7
2022-12-19T10:09:00.244Z,21.1
2022-12-19T10:12:41.583Z,21.3
2022-12-19T10:14:45.758Z,22.8
2022-12-19T10:17:45.838Z,22.2
2022-12-19T10:20:45.769Z,21.1
2022-12-19T10:23:45.923Z,20.8
2022-12-19T10:26:45.785Z,20.9
2022-12-19T10:29:45.811Z,20.4
2022-12-19T10:32:45.797Z,20.3
2022-12-19T10:35:45.817Z,20.1
2022-12-19T10:38:46.297Z,20.5
2022-12-19T10:41:45.932Z,20.3
2022-12-19T10:44:45.857Z,20.8
2022-12-19T10:47:45.851Z,21
2022-12-19T10:50:45.806Z,21
2022-12-19T10:53:45.844Z,20.3
2022-12-19T10:56:45.829Z,20.7
2022-12-19T10:59:45.950Z,19.9
2022-12-19T11:02:45.953Z,19.6
2022-12-19T11:05:45.824Z,19.1
2022-12-19T11:08:45.865Z,19.3
2022-12-19T11:12:45.200Z,19.6
2022-12-19T11:17:00.562Z,18.9
2022-12-19T11:19:34.650Z,18.5
2022-12-19T11:25:28.198Z,19
2022-12-19T11:29:28.539Z,18.4
2022-12-19T11:29:28.969Z,18.1
2022-12-19T11:32:46.610Z,17.4
2022-12-19T11:35:45.990Z,17.9
2022-12-19T11:38:45.885Z,17.2
2022-12-19T11:41:45.874Z,17.7
2022-12-19T11:44:45.884Z,17.3
2022-12-19T11:47:45.909Z,17.6
2022-12-19T11:50:45.899Z,17.5
2022-12-19T11:53:46.011Z,17.5
2022-12-19T11:56:45.904Z,17.9
2022-12-19T11:59:45.933Z,16.9
2022-12-19T12:02:45.967Z,16
2022-12-19T12:05:45.921Z,16.3
2022-12-19T12:09:30.415Z,15.5
2022-12-19T12:12:47.496Z,15.5
2022-12-19T12:20:04.442Z,15.7
2022-12-19T12:22:26.577Z,17.3
2022-12-19T12:27:34.877Z,17.4
2022-12-19T12:31:33.533Z,18.2
2022-12-19T12:31:37.437Z,17.7
2022-12-19T12:31:37.506Z,17.5
2022-12-19T12:35:28.240Z,16.4
2022-12-19T12:38:46.334Z,15.8
2022-12-19T12:41:45.998Z,15.7
2022-12-19T12:44:46.483Z,14.8
2022-12-19T12:47:46.047Z,15.5
2022-12-19T12:50:49.913Z,15.2
2022-12-19T12:53:46.010Z,15.1
2022-12-19T12:56:46.014Z,14.8
2022-12-19T12:59:46.023Z,14.6
2022-12-19T13:02:46.124Z,14.3
2022-12-19T13:05:46.062Z,13.4
2022-12-19T13:08:46.045Z,14.3
2022-12-19T13:11:46.041Z,13.3
2022-12-19T13:14:46.048Z,13
2022-12-19T13:17:46.059Z,13.4
2022-12-19T13:20:46.055Z,13.9
2022-12-19T13:23:46.097Z,13.6
2022-12-19T13:26:46.070Z,13.8
2022-12-19T13:29:46.081Z,13.3
2022-12-19T13:32:46.080Z,14
2022-12-19T13:36:19.140Z,14.1
2022-12-19T13:39:52.842Z,14.3
2022-12-19T13:41:46.134Z,14.9
2022-12-19T13:44:46.084Z,14.1
2022-12-19T13:47:46.104Z,14.7
2022-12-19T13:50:46.101Z,13.9
2022-12-19T13:53:46.120Z,14.6
2022-12-19T13:56:46.100Z,14.1
2022-12-19T13:59:54.418Z,14.4
2022-12-19T14:02:46.628Z,14.8
2022-12-19T14:06:18.013Z,14.8
2022-12-19T14:08:46.125Z,14.4
2022-12-19T14:12:12.694Z,14.5
2022-12-19T14:14:46.132Z,14.2
2022-12-19T14:17:46.172Z,14.2
2022-12-19T14:21:31.318Z,13.8
2022-12-19T14:23:46.137Z,14.3
2022-12-19T14:28:23.091Z,14.1
2022-12-19T14:30:19.924Z,13.8
2022-12-19T14:33:41.919Z,14
2022-12-19T14:36:09.378Z,14
2022-12-19T14:39:21.396Z,13.9
2022-12-19T14:41:46.181Z,13.8
2022-12-19T14:50:16.180Z,12.9
2022-12-19T14:50:16.567Z,13.2
2022-12-19T14:52:36.407Z,13.6
2022-12-19T14:54:20.329Z,13.2
2022-12-19T14:56:58.763Z,12.9
2022-12-19T14:59:46.374Z,13.5
2022-12-19T15:02:46.320Z,13.3
2022-12-19T15:05:46.219Z,13.6
2022-12-19T15:09:01.599Z,13.6
2022-12-19T15:11:53.385Z,14
2022-12-19T15:14:50.221Z,14.3
2022-12-19T15:17:46.240Z,14.1
2022-12-19T15:20:46.238Z,14.1
2022-12-19T15:23:46.239Z,13.4
2022-12-19T15:26:46.250Z,13
2022-12-19T15:29:46.284Z,13.5
2022-12-19T15:32:46.264Z,12.7
2022-12-19T15:35:46.258Z,13.3
2022-12-19T15:38:46.264Z,13.1
2022-12-19T15:41:46.266Z,13
2022-12-19T15:44:46.265Z,12.9
2022-12-19T15:47:46.361Z,12.8
2022-12-19T15:50:46.296Z,12.5
2022-12-19T15:53:46.279Z,12.9
2022-12-19T15:56:46.280Z,13.1
2022-12-19T15:59:46.286Z,13.7
2022-12-19T16:05:46.327Z,13.3
2022-12-19T16:08:46.302Z,13.3
2022-12-19T16:11:46.297Z,13.8
2022-12-19T16:14:46.300Z,14.3
2022-12-19T16:17:46.314Z,13.8
2022-12-19T16:20:46.306Z,14.4
2022-12-19T16:23:46.342Z,14.5
2022-12-19T16:26:46.315Z,13.9
2022-12-19T16:29:46.335Z,13.4
2022-12-19T16:32:46.337Z,13.6
2022-12-19T16:36:07.720Z,13.5
2022-12-19T16:38:46.332Z,14.7
2022-12-19T16:41:46.456Z,13.3
2022-12-19T16:44:46.365Z,13.2
2022-12-19T16:47:46.352Z,13.2
2022-12-19T16:50:46.365Z,12.5
2022-12-19T16:53:46.366Z,13.1
2022-12-19T16:56:46.363Z,11.7
2022-12-19T16:59:46.386Z,11.6
2022-12-19T17:02:46.504Z,10.8
2022-12-19T17:05:46.363Z,10.4
2022-12-19T17:08:46.372Z,10.5
2022-12-19T17:11:46.375Z,10.1
2022-12-19T17:14:46.374Z,10.3
2022-12-19T17:17:46.413Z,10
2022-12-19T17:20:46.377Z,9.8
2022-12-19T17:23:46.377Z,9.3
2022-12-19T17:26:46.383Z,8.8
2022-12-19T17:29:46.387Z,8.5
2022-12-19T17:32:46.422Z,8.7
2022-12-19T17:35:46.429Z,8.5
2022-12-19T17:38:46.409Z,8.6
2022-12-19T17:41:46.411Z,8.9
2022-12-19T17:44:46.466Z,8.1
2022-12-19T17:47:46.433Z,8.7
2022-12-19T17:50:46.426Z,8.5
2022-12-19T17:53:46.468Z,8.4
2022-12-19T17:56:46.429Z,8.3
2022-12-19T17:59:46.645Z,8.5
2022-12-19T18:02:46.605Z,8
2022-12-19T18:05:46.441Z,8.9
2022-12-19T18:08:46.444Z,7.9
2022-12-19T18:11:46.496Z,8.6
2022-12-19T18:14:46.454Z,7.8
2022-12-19T18:17:46.463Z,8.4
2022-12-19T18:20:46.462Z,8
2022-12-19T18:23:46.491Z,7.2
2022-12-19T18:26:46.466Z,7.7
2022-12-19T18:29:46.499Z,7.5
2022-12-19T18:32:46.480Z,8.1
2022-12-19T18:35:46.477Z,8
2022-12-19T18:38:46.479Z,8.5
2022-12-19T18:41:46.480Z,7.9
2022-12-19T18:44:46.487Z,8.1
2022-12-19T18:47:51.213Z,8.1
2022-12-19T18:50:46.484Z,8.4
2022-12-19T18:53:46.496Z,8.6
2022-12-19T18:56:46.492Z,9
2022-12-19T18:59:46.497Z,8.9
2022-12-19T19:02:46.743Z,9.1
2022-12-19T19:05:46.541Z,9
2022-12-19T19:08:46.497Z,8.4
2022-12-19T19:11:46.496Z,8.7
2022-12-19T19:14:46.497Z,8.4
2022-12-19T19:17:46.513Z,8.1
2022-12-19T19:20:46.504Z,8.2
2022-12-19T19:23:46.525Z,8.7
2022-12-19T19:26:46.554Z,8.6
2022-12-19T19:29:46.519Z,8.2
2022-12-19T19:32:46.523Z,8.6
2022-12-19T19:35:46.522Z,8.1
2022-12-19T19:38:46.517Z,8.3
2022-12-19T19:41:46.553Z,8.1
2022-12-19T19:44:46.527Z,7.3
2022-12-19T19:47:46.541Z,7.6
2022-12-19T19:50:46.536Z,8.2
2022-12-19T19:53:46.546Z,7.7
2022-12-19T19:56:46.549Z,7.1
2022-12-19T19:59:46.580Z,7.5
2022-12-19T20:02:46.763Z,7
2022-12-19T20:05:46.559Z,6.8
2022-12-19T20:08:46.582Z,6.8
2022-12-19T20:11:46.569Z,7
2022-12-19T20:14:46.581Z,7
2022-12-19T20:17:46.625Z,7.1
2022-12-19T20:20:46.597Z,7.3
2022-12-19T20:23:46.609Z,7.2
2022-12-19T20:26:46.610Z,7.2
2022-12-19T20:29:46.627Z,7
2022-12-19T20:32:46.642Z,7.4
2022-12-19T20:35:46.659Z,7.7
2022-12-19T20:38:46.649Z,7.5
2022-12-19T20:41:46.655Z,8
2022-12-19T20:44:46.661Z,8.1
2022-12-19T20:47:46.668Z,7.6
2022-12-19T20:50:46.673Z,7.7
2022-12-19T20:53:46.706Z,7.9
2022-12-19T20:56:46.686Z,7.7
2022-12-19T20:59:46.772Z,8
2022-12-19T21:03:25.439Z,7.5
2022-12-19T21:05:46.708Z,7.6
2022-12-19T21:08:46.728Z,7.7
2022-12-19T21:11:46.758Z,7.7
2022-12-19T21:14:46.733Z,7.8
2022-12-19T21:17:46.753Z,7.6
2022-12-19T21:20:46.750Z,7.8
2022-12-19T21:23:46.759Z,7.8
2022-12-19T21:26:46.765Z,7.6
2022-12-19T21:29:46.806Z,7.7
2022-12-19T21:32:46.796Z,7.5
2022-12-19T21:35:46.786Z,7.3
2022-12-19T21:38:46.805Z,7.6
2022-12-19T21:41:46.815Z,7.5
2022-12-19T21:44:46.825Z,7.5
2022-12-19T21:47:46.895Z,7.3
2022-12-19T21:50:46.841Z,7.1
2022-12-19T21:53:46.839Z,7.5
2022-12-19T21:56:46.851Z,7.5
2022-12-19T21:59:46.855Z,7.5
2022-12-19T22:03:11.856Z,7.7
2022-12-19T22:05:46.899Z,7.4
2022-12-19T22:08:46.874Z,7.6
2022-12-19T22:11:46.948Z,7.6
2022-12-19T22:14:46.883Z,7.9
2022-12-19T22:17:46.903Z,7.6
2022-12-19T22:20:46.906Z,7.7
2022-12-19T22:23:46.964Z,7.9
2022-12-19T22:26:46.928Z,7.5
2022-12-19T22:29:46.932Z,7.8
2022-12-19T22:32:46.932Z,8
2022-12-19T22:35:46.936Z,8
2022-12-19T22:38:46.937Z,7.8
2022-12-19T22:41:46.963Z,8
2022-12-19T22:44:46.936Z,8.5
2022-12-19T22:47:46.949Z,8.1
2022-12-19T22:50:46.988Z,7.9
2022-12-19T22:53:46.938Z,8.1
2022-12-19T22:56:46.943Z,8.1
2022-12-19T22:59:46.964Z,8.1
2022-12-19T23:02:47.095Z,8.3
2022-12-19T23:05:51.642Z,8.1
2022-12-19T23:08:46.945Z,8.1
2022-12-19T23:11:46.953Z,8.3
2022-12-19T23:14:46.954Z,8.3
2022-12-19T23:17:47.056Z,8.6
2022-12-19T23:20:46.956Z,8.6
2022-12-19T23:23:46.959Z,8.3
2022-12-19T23:26:46.968Z,8.1
2022-12-19T23:29:46.978Z,8.1
2022-12-19T23:32:50.606Z,8.7
2022-12-19T23:35:47.009Z,8.2
2022-12-19T23:38:46.983Z,8.3
2022-12-19T23:41:46.978Z,8.5
2022-12-19T23:44:46.981Z,8.4
2022-12-19T23:47:47.008Z,8.2
2022-12-19T23:50:46.983Z,8.4
2022-12-19T23:53:47.069Z,8.3
2022-12-19T23:56:46.988Z,7.9
2022-12-19T23:59:46.992Z,8.1
